createdAt,value
2023-04-29T00:00:10.900Z,12.20
2023-04-29T00:02:37.587Z,12.19
2023-04-29T00:05:08.574Z,12.19
2023-04-29T00:07:36.521Z,12.24
2023-04-29T00:10:05.164Z,12.22
2023-04-29T00:12:33.311Z,12.19
2023-04-29T00:15:00.843Z,12.18
2023-04-29T00:17:29.958Z,12.26
2023-04-29T00:19:56.538Z,12.21
2023-04-29T00:22:23.093Z,12.24
2023-04-29T00:24:56.358Z,12.23
2023-04-29T00:27:23.059Z,12.16
2023-04-29T00:29:52.576Z,12.17
2023-04-29T00:32:19.388Z,12.14
2023-04-29T00:34:46.143Z,12.12
2023-04-29T00:37:13.016Z,12.09
2023-04-29T00:39:39.593Z,12.14
2023-04-29T00:42:06.815Z,12.15
2023-04-29T00:44:33.327Z,12.13
2023-04-29T00:47:00.761Z,12.18
2023-04-29T00:49:27.844Z,12.22
2023-04-29T00:51:57.093Z,12.22
2023-04-29T00:54:26.832Z,12.17
2023-04-29T00:56:54.736Z,12.15
2023-04-29T00:59:21.614Z,12.12
2023-04-29T01:01:48.420Z,12.15
2023-04-29T01:04:16.316Z,12.13
2023-04-29T01:06:54.384Z,12.14
2023-04-29T01:09:51.338Z,12.15
2023-04-29T01:12:34.922Z,12.11
2023-04-29T01:15:09.299Z,12.10
2023-04-29T01:17:48.183Z,12.07
2023-04-29T01:20:15.552Z,12.11
2023-04-29T01:22:43.167Z,12.15
2023-04-29T01:25:10.037Z,12.11
2023-04-29T01:28:02.096Z,12.10
2023-04-29T01:30:37.026Z,12.17
2023-04-29T01:33:30.239Z,12.14
2023-04-29T01:36:22.206Z,12.12
2023-04-29T01:39:20.051Z,12.07
2023-04-29T01:42:29.898Z,12.08
2023-04-29T01:45:00.811Z,12.19
2023-04-29T01:47:27.720Z,12.17
2023-04-29T01:49:54.406Z,12.12
2023-04-29T01:52:21.332Z,12.08
2023-04-29T01:54:47.818Z,12.07
2023-04-29T01:57:26.602Z,12.06
2023-04-29T01:59:53.309Z,12.06
2023-04-29T02:02:23.556Z,12.07
2023-04-29T02:04:50.652Z,12.05
2023-04-29T02:07:17.554Z,12.10
2023-04-29T02:09:44.026Z,12.06
2023-04-29T02:12:10.512Z,12.02
2023-04-29T02:14:37.972Z,12.04
2023-04-29T02:17:04.619Z,12.02
2023-04-29T02:19:31.127Z,12.00
2023-04-29T02:21:57.618Z,11.96
2023-04-29T02:24:24.135Z,11.87
2023-04-29T02:26:50.643Z,11.86
2023-04-29T02:29:17.460Z,11.85
2023-04-29T02:31:43.962Z,11.86
2023-04-29T02:34:10.591Z,11.82
2023-04-29T02:36:37.034Z,11.80
2023-04-29T02:39:03.564Z,11.76
2023-04-29T02:41:30.055Z,11.77
2023-04-29T02:43:56.541Z,11.71
2023-04-29T02:46:23.126Z,11.69
2023-04-29T02:48:49.742Z,11.64
2023-04-29T02:51:16.231Z,11.61
2023-04-29T02:53:42.884Z,11.60
2023-04-29T02:56:09.350Z,11.59
2023-04-29T02:58:35.998Z,11.59
2023-04-29T03:01:02.623Z,11.57
2023-04-29T03:03:29.265Z,11.52
2023-04-29T03:05:55.960Z,11.51
2023-04-29T03:08:22.527Z,11.49
2023-04-29T03:10:49.026Z,11.45
2023-04-29T03:13:15.511Z,11.43
2023-04-29T03:15:43.577Z,11.41
2023-04-29T03:18:10.263Z,11.38
2023-04-29T03:20:37.043Z,11.38
2023-04-29T03:23:03.716Z,11.37
2023-04-29T03:25:30.189Z,11.36
2023-04-29T03:27:57.154Z,11.33
2023-04-29T03:30:23.662Z,11.31
2023-04-29T03:32:50.222Z,11.32
2023-04-29T03:35:16.979Z,11.31
2023-04-29T03:37:44.606Z,11.28
2023-04-29T03:40:12.275Z,11.27
2023-04-29T03:42:41.552Z,11.29
2023-04-29T03:45:14.279Z,11.27
2023-04-29T03:47:41.101Z,11.27
2023-04-29T03:50:08.781Z,11.26
2023-04-29T03:52:36.556Z,11.25
2023-04-29T03:55:03.743Z,11.24
2023-04-29T03:57:31.097Z,11.30
2023-04-29T03:59:58.164Z,11.26
2023-04-29T04:02:24.742Z,11.25
2023-04-29T04:04:51.606Z,11.28
2023-04-29T04:07:18.292Z,11.24
2023-04-29T04:09:44.817Z,11.16
2023-04-29T04:12:11.285Z,11.12
2023-04-29T04:14:37.752Z,11.06
2023-04-29T04:17:04.197Z,11.04
2023-04-29T04:19:31.075Z,10.98
2023-04-29T04:21:57.561Z,10.95
2023-04-29T04:24:24.082Z,10.91
2023-04-29T04:26:50.621Z,10.90
2023-04-29T04:29:19.491Z,10.92
2023-04-29T04:31:47.182Z,10.89
2023-04-29T04:34:13.870Z,10.89
2023-04-29T04:36:41.429Z,10.86
2023-04-29T04:39:08.174Z,10.87
2023-04-29T04:41:34.719Z,10.85
2023-04-29T04:44:06.426Z,10.87
2023-04-29T04:46:33.001Z,10.84
2023-04-29T04:48:59.494Z,10.82
2023-04-29T04:51:25.974Z,10.84
2023-04-29T04:53:52.432Z,10.83
2023-04-29T04:56:18.959Z,10.82
2023-04-29T04:58:45.546Z,10.79
2023-04-29T05:01:12.340Z,10.81
2023-04-29T05:03:38.952Z,10.79
2023-04-29T05:06:05.729Z,10.76
2023-04-29T05:08:32.237Z,10.76
2023-04-29T05:10:58.771Z,10.76
2023-04-29T05:13:28.268Z,10.76
2023-04-29T05:15:54.827Z,10.78
2023-04-29T05:18:21.329Z,10.75
2023-04-29T05:20:47.835Z,10.72
2023-04-29T05:23:14.357Z,10.72
2023-04-29T05:25:41.043Z,10.70
2023-04-29T05:28:07.650Z,10.63
2023-04-29T05:30:34.310Z,10.59
2023-04-29T05:33:01.149Z,10.55
2023-04-29T05:35:28.037Z,10.53
2023-04-29T05:37:54.523Z,10.54
2023-04-29T05:40:23.153Z,10.54
2023-04-29T05:42:49.692Z,10.53
2023-04-29T05:45:16.288Z,10.50
2023-04-29T05:47:42.874Z,10.48
2023-04-29T05:50:09.523Z,10.50
2023-04-29T05:52:36.555Z,10.54
2023-04-29T05:55:03.132Z,10.53
2023-04-29T05:57:29.692Z,10.53
2023-04-29T05:59:56.332Z,10.47
2023-04-29T06:02:23.376Z,10.48
2023-04-29T06:04:50.111Z,10.50
2023-04-29T06:07:19.940Z,10.51
2023-04-29T06:09:46.952Z,10.54
2023-04-29T06:12:13.438Z,10.50
2023-04-29T06:14:39.921Z,10.46
2023-04-29T06:17:09.212Z,10.46
2023-04-29T06:19:36.097Z,10.43
2023-04-29T06:22:02.597Z,10.44
2023-04-29T06:24:29.042Z,10.45
2023-04-29T06:26:55.497Z,10.41
2023-04-29T06:29:22.005Z,10.42
2023-04-29T06:31:48.479Z,10.42
2023-04-29T06:34:15.105Z,10.39
2023-04-29T06:36:41.673Z,10.38
2023-04-29T06:39:08.198Z,10.37
2023-04-29T06:41:34.902Z,10.42
2023-04-29T06:44:01.424Z,10.40
2023-04-29T06:46:29.215Z,10.40
2023-04-29T06:48:55.905Z,10.39
2023-04-29T06:51:22.372Z,10.35
2023-04-29T06:53:49.305Z,10.33
2023-04-29T06:56:17.094Z,10.32
2023-04-29T06:58:43.877Z,10.32
2023-04-29T07:01:10.997Z,10.30
2023-04-29T07:03:37.996Z,10.32
2023-04-29T07:06:05.145Z,10.32
2023-04-29T07:08:32.195Z,10.31
2023-04-29T07:10:59.046Z,10.29
2023-04-29T07:13:26.099Z,10.29
2023-04-29T07:15:52.581Z,10.29
2023-04-29T07:18:19.308Z,10.30
2023-04-29T07:20:47.256Z,10.27
2023-04-29T07:23:14.866Z,10.24
2023-04-29T07:25:41.500Z,10.23
2023-04-29T07:28:10.934Z,10.21
2023-04-29T07:30:37.555Z,10.18
2023-04-29T07:33:04.609Z,10.12
2023-04-29T07:35:31.725Z,10.11
2023-04-29T07:37:58.362Z,10.11
2023-04-29T07:40:25.118Z,10.10
2023-04-29T07:42:51.784Z,10.06
2023-04-29T07:45:18.324Z,10.04
2023-04-29T07:47:45.627Z,10.02
2023-04-29T07:50:12.503Z,9.94
2023-04-29T07:52:38.965Z,9.93
2023-04-29T07:55:05.927Z,9.96
2023-04-29T07:57:32.398Z,9.93
2023-04-29T07:59:59.019Z,9.90
2023-04-29T08:02:25.667Z,9.87
2023-04-29T08:04:54.850Z,9.88
2023-04-29T08:07:21.752Z,9.90
2023-04-29T08:09:48.225Z,9.88
2023-04-29T08:12:14.696Z,9.85
2023-04-29T08:14:41.366Z,9.89
2023-04-29T08:17:08.305Z,9.84
2023-04-29T08:19:34.829Z,9.91
2023-04-29T08:22:01.433Z,9.95
2023-04-29T08:24:29.114Z,9.98
2023-04-29T08:26:55.577Z,9.98
2023-04-29T08:29:22.054Z,10.02
2023-04-29T08:31:48.655Z,10.02
2023-04-29T08:34:15.178Z,10.04
2023-04-29T08:36:41.610Z,10.01
2023-04-29T08:39:09.015Z,10.06
2023-04-29T08:41:37.082Z,10.01
2023-04-29T08:44:03.557Z,10.01
2023-04-29T08:46:32.250Z,10.03
2023-04-29T08:49:02.831Z,10.09
2023-04-29T08:51:29.551Z,10.11
2023-04-29T08:53:56.883Z,10.14
2023-04-29T08:56:27.394Z,10.16
2023-04-29T08:58:58.229Z,10.18
2023-04-29T09:01:31.925Z,10.23
2023-04-29T09:04:12.273Z,10.28
2023-04-29T09:06:38.837Z,10.34
2023-04-29T09:09:06.534Z,10.41
2023-04-29T09:11:33.995Z,10.51
2023-04-29T09:14:02.300Z,10.54
2023-04-29T09:16:29.563Z,10.60
2023-04-29T09:18:56.906Z,10.72
2023-04-29T09:21:24.990Z,10.97
2023-04-29T09:23:54.232Z,11.07
2023-04-29T09:26:21.216Z,11.09
2023-04-29T09:28:49.724Z,11.03
2023-04-29T09:31:27.984Z,10.90
2023-04-29T09:33:59.743Z,10.85
2023-04-29T09:36:45.932Z,10.90
2023-04-29T09:39:15.205Z,11.02
2023-04-29T09:41:54.923Z,11.18
2023-04-29T09:44:30.005Z,11.24
2023-04-29T09:47:03.182Z,11.20
2023-04-29T09:49:30.755Z,11.08
2023-04-29T09:51:59.912Z,11.01
2023-04-29T09:54:29.432Z,11.02
2023-04-29T09:56:57.860Z,11.11
2023-04-29T09:59:25.050Z,11.18
2023-04-29T10:01:53.408Z,11.33
2023-04-29T10:04:26.533Z,11.58
2023-04-29T10:06:54.980Z,11.79
2023-04-29T10:09:23.012Z,11.83
2023-04-29T10:11:51.551Z,11.69
2023-04-29T10:14:22.947Z,11.55
2023-04-29T10:16:59.513Z,11.44
2023-04-29T10:19:33.734Z,11.45
2023-04-29T10:22:07.995Z,11.51
2023-04-29T10:24:37.634Z,11.74
2023-04-29T10:27:07.695Z,12.28
2023-04-29T10:29:36.948Z,12.70
2023-04-29T10:32:07.619Z,12.81
2023-04-29T10:34:36.863Z,12.51
2023-04-29T10:37:03.443Z,12.21
2023-04-29T10:39:44.076Z,12.05
2023-04-29T10:42:26.405Z,11.99
2023-04-29T10:45:23.659Z,12.05
2023-04-29T10:48:12.371Z,12.13
2023-04-29T10:50:47.850Z,12.00
2023-04-29T10:53:15.976Z,11.88
2023-04-29T10:55:43.137Z,11.82
2023-04-29T10:58:38.584Z,11.83
2023-04-29T11:01:06.104Z,11.93
2023-04-29T11:03:59.148Z,12.05
2023-04-29T11:06:40.110Z,12.20
2023-04-29T11:09:14.376Z,12.28
2023-04-29T11:12:05.613Z,12.44
2023-04-29T11:14:43.474Z,12.44
2023-04-29T11:17:13.174Z,12.31
2023-04-29T11:19:48.453Z,12.10
2023-04-29T11:22:14.998Z,11.96
2023-04-29T11:25:00.958Z,11.85
2023-04-29T11:27:31.624Z,11.79
2023-04-29T11:29:59.385Z,11.79
2023-04-29T11:32:31.142Z,11.81
2023-04-29T11:35:12.358Z,11.87
2023-04-29T11:37:39.971Z,11.94
2023-04-29T11:40:07.297Z,12.03
2023-04-29T11:42:41.613Z,12.12
2023-04-29T11:45:09.124Z,12.19
2023-04-29T11:47:35.605Z,12.28
2023-04-29T11:50:11.406Z,12.28
2023-04-29T11:52:41.604Z,12.21
2023-04-29T11:55:12.051Z,12.11
2023-04-29T11:57:41.986Z,12.07
2023-04-29T12:00:12.967Z,12.02
2023-04-29T12:02:43.459Z,11.96
2023-04-29T12:05:10.508Z,11.97
2023-04-29T12:07:37.513Z,11.99
2023-04-29T12:10:07.861Z,12.05
2023-04-29T12:12:36.382Z,12.09
2023-04-29T12:15:05.430Z,12.17
2023-04-29T12:17:32.340Z,12.26
2023-04-29T12:19:58.997Z,12.34
2023-04-29T12:22:32.109Z,12.40
2023-04-29T12:24:58.612Z,12.43
2023-04-29T12:27:26.421Z,12.59
2023-04-29T12:29:53.152Z,12.64
2023-04-29T12:32:23.168Z,12.65
2023-04-29T12:34:52.431Z,12.81
2023-04-29T12:37:19.300Z,12.88
2023-04-29T12:39:45.942Z,12.94
2023-04-29T12:42:17.123Z,12.92
2023-04-29T12:44:49.730Z,12.87
2023-04-29T12:47:16.850Z,12.83
2023-04-29T12:49:48.046Z,12.74
2023-04-29T12:52:14.799Z,12.73
2023-04-29T12:54:44.432Z,12.69
2023-04-29T12:57:12.292Z,12.72
2023-04-29T12:59:40.751Z,12.76
2023-04-29T13:02:07.722Z,12.86
2023-04-29T13:04:34.279Z,12.90
2023-04-29T13:07:02.607Z,12.96
2023-04-29T13:09:30.588Z,13.05
2023-04-29T13:11:57.774Z,13.16
2023-04-29T13:14:24.307Z,13.20
2023-04-29T13:16:50.834Z,13.23
2023-04-29T13:19:29.541Z,13.29
2023-04-29T13:22:01.620Z,13.32
2023-04-29T13:24:28.156Z,13.29
2023-04-29T13:26:54.708Z,13.26
2023-04-29T13:29:21.307Z,13.25
2023-04-29T13:31:48.169Z,13.19
2023-04-29T13:34:14.814Z,13.21
2023-04-29T13:36:43.975Z,13.16
2023-04-29T13:39:10.554Z,13.12
2023-04-29T13:41:37.295Z,13.11
2023-04-29T13:44:06.125Z,13.11
2023-04-29T13:46:42.605Z,13.12
2023-04-29T13:49:35.834Z,13.15
2023-04-29T13:52:37.647Z,13.19
2023-04-29T13:59:48.814Z,13.30
2023-04-29T14:04:50.481Z,13.41
2023-04-29T14:07:17.452Z,13.41
2023-04-29T14:09:44.087Z,13.46
2023-04-29T14:12:13.562Z,13.46
2023-04-29T14:14:40.038Z,13.42
2023-04-29T14:17:07.053Z,13.40
2023-04-29T14:19:33.578Z,13.40
2023-04-29T14:22:00.029Z,13.43
2023-04-29T14:24:26.584Z,13.49
2023-04-29T14:26:53.431Z,13.51
2023-04-29T14:29:25.423Z,13.54
2023-04-29T14:31:51.949Z,13.56
2023-04-29T14:34:21.532Z,13.46
2023-04-29T14:36:48.034Z,13.43
2023-04-29T14:39:14.589Z,13.41
2023-04-29T14:41:41.160Z,13.38
2023-04-29T14:44:10.307Z,13.38
2023-04-29T14:46:36.868Z,13.37
2023-04-29T14:49:04.152Z,13.36
2023-04-29T14:51:31.183Z,13.34
2023-04-29T14:53:57.810Z,13.28
2023-04-29T14:56:24.340Z,13.22
2023-04-29T14:58:50.959Z,13.20
2023-04-29T15:01:17.518Z,13.12
2023-04-29T15:03:44.953Z,13.05
2023-04-29T15:06:13.027Z,13.00
2023-04-29T15:08:39.635Z,13.00
2023-04-29T15:11:06.110Z,13.01
2023-04-29T15:13:32.572Z,13.01
2023-04-29T15:15:59.171Z,13.02
2023-04-29T15:18:26.378Z,12.96
2023-04-29T15:20:53.730Z,12.92
2023-04-29T15:23:20.355Z,12.88
2023-04-29T15:25:46.862Z,12.85
2023-04-29T15:28:13.309Z,12.82
2023-04-29T15:30:39.786Z,12.81
2023-04-29T15:33:09.174Z,12.82
2023-04-29T15:35:36.646Z,12.83
2023-04-29T15:38:03.165Z,12.84
2023-04-29T15:40:29.790Z,12.87
2023-04-29T15:42:56.290Z,12.88
2023-04-29T15:45:22.734Z,12.89
2023-04-29T15:47:49.370Z,12.88
2023-04-29T15:50:15.860Z,12.87
2023-04-29T15:52:42.366Z,12.86
2023-04-29T15:55:09.118Z,12.85
2023-04-29T15:57:41.054Z,12.82
2023-04-29T16:00:08.848Z,12.81
2023-04-29T16:02:35.696Z,12.82
2023-04-29T16:05:02.306Z,12.79
2023-04-29T16:07:28.860Z,12.74
2023-04-29T16:09:55.584Z,12.73
2023-04-29T16:12:22.208Z,12.71
2023-04-29T16:14:48.670Z,12.70
2023-04-29T16:17:15.271Z,12.68
2023-04-29T16:19:44.190Z,12.69
2023-04-29T16:22:11.084Z,12.68
2023-04-29T16:24:37.679Z,12.67
2023-04-29T16:27:07.156Z,12.68
2023-04-29T16:29:33.678Z,12.68
2023-04-29T16:32:00.170Z,12.69
2023-04-29T16:34:26.643Z,12.69
2023-04-29T16:36:53.166Z,12.70
2023-04-29T16:39:19.631Z,12.74
2023-04-29T16:41:49.400Z,12.75
2023-04-29T16:44:18.603Z,12.79
2023-04-29T16:46:45.442Z,12.79
2023-04-29T16:49:13.578Z,12.77
2023-04-29T16:51:40.103Z,12.74
2023-04-29T16:54:08.061Z,12.73
2023-04-29T16:56:34.637Z,12.69
2023-04-29T16:59:01.345Z,12.70
2023-04-29T17:01:28.170Z,12.68
2023-04-29T17:03:55.675Z,12.67
2023-04-29T17:06:23.640Z,12.66
2023-04-29T17:08:53.337Z,12.65
2023-04-29T17:11:19.857Z,12.63
2023-04-29T17:13:46.403Z,12.59
2023-04-29T17:16:14.040Z,12.56
2023-04-29T17:18:40.914Z,12.53
2023-04-29T17:21:07.408Z,12.52
2023-04-29T17:23:33.937Z,12.50
2023-04-29T17:26:01.167Z,12.49
2023-04-29T17:28:30.751Z,12.48
2023-04-29T17:31:00.152Z,12.48
2023-04-29T17:33:35.062Z,12.45
2023-04-29T17:36:03.467Z,12.43
2023-04-29T17:38:32.989Z,12.42
2023-04-29T17:40:59.480Z,12.39
2023-04-29T17:43:27.231Z,12.40
2023-04-29T17:45:53.778Z,12.37
2023-04-29T17:48:22.413Z,12.37
2023-04-29T17:50:48.856Z,12.34
2023-04-29T17:53:15.339Z,12.32
2023-04-29T17:55:43.940Z,12.28
2023-04-29T17:58:10.725Z,12.28
2023-04-29T18:00:37.800Z,12.27
2023-04-29T18:03:04.985Z,12.22
2023-04-29T18:05:31.557Z,12.22
2023-04-29T18:07:57.979Z,12.22
2023-04-29T18:10:24.590Z,12.22
2023-04-29T18:12:51.226Z,12.18
2023-04-29T18:15:17.774Z,12.17
2023-04-29T18:17:44.312Z,12.15
2023-04-29T18:20:12.891Z,12.13
2023-04-29T18:22:42.232Z,12.13
2023-04-29T18:25:09.166Z,12.14
2023-04-29T18:27:36.104Z,12.14
2023-04-29T18:30:02.599Z,12.12
2023-04-29T18:32:29.133Z,12.12
2023-04-29T18:34:56.310Z,12.11
2023-04-29T18:37:23.215Z,12.10
2023-04-29T18:39:51.937Z,12.05
2023-04-29T18:42:18.638Z,12.03
2023-04-29T18:44:47.459Z,11.96
2023-04-29T18:47:14.050Z,11.89
2023-04-29T18:49:40.967Z,11.84
2023-04-29T18:52:08.009Z,11.80
2023-04-29T18:54:34.756Z,11.75
2023-04-29T18:57:02.531Z,11.65
2023-04-29T18:59:29.635Z,11.63
2023-04-29T19:01:56.238Z,11.60
2023-04-29T19:04:24.610Z,11.57
2023-04-29T19:06:51.082Z,11.52
2023-04-29T19:09:17.534Z,11.47
2023-04-29T19:11:44.349Z,11.45
2023-04-29T19:14:11.057Z,11.37
2023-04-29T19:16:37.685Z,11.30
2023-04-29T19:19:04.419Z,11.26
2023-04-29T19:21:33.036Z,11.20
2023-04-29T19:23:59.820Z,11.12
2023-04-29T19:26:26.370Z,11.06
2023-04-29T19:28:52.879Z,11.01
2023-04-29T19:31:19.438Z,10.95
2023-04-29T19:33:46.073Z,10.89
2023-04-29T19:36:14.263Z,10.86
2023-04-29T19:38:40.855Z,10.78
2023-04-29T19:41:07.444Z,10.74
2023-04-29T19:43:33.885Z,10.71
2023-04-29T19:46:00.446Z,10.66
2023-04-29T19:48:26.915Z,10.60
2023-04-29T19:50:53.487Z,10.56
2023-04-29T19:53:20.203Z,10.53
2023-04-29T19:55:51.211Z,10.50
2023-04-29T19:58:21.081Z,10.43
2023-04-29T20:00:48.059Z,10.42
2023-04-29T20:03:15.861Z,10.41
2023-04-29T20:05:42.470Z,10.41
2023-04-29T20:08:08.929Z,10.36
2023-04-29T20:10:35.641Z,10.34
2023-04-29T20:13:02.208Z,10.33
2023-04-29T20:15:28.722Z,10.28
2023-04-29T20:17:55.654Z,10.23
2023-04-29T20:20:22.285Z,10.21
2023-04-29T20:22:48.964Z,10.15
2023-04-29T20:25:15.450Z,10.12
2023-04-29T20:27:41.918Z,10.07
2023-04-29T20:30:10.429Z,10.10
2023-04-29T20:32:37.868Z,10.09
2023-04-29T20:35:05.612Z,10.02
2023-04-29T20:37:32.114Z,9.96
2023-04-29T20:39:58.649Z,9.88
2023-04-29T20:42:25.173Z,9.82
2023-04-29T20:44:51.895Z,9.83
2023-04-29T20:47:18.383Z,9.83
2023-04-29T20:49:44.814Z,9.76
2023-04-29T20:52:11.377Z,9.74
2023-04-29T20:54:37.877Z,9.70
2023-04-29T20:57:05.670Z,9.62
2023-04-29T20:59:33.422Z,9.62
2023-04-29T21:01:59.971Z,9.66
2023-04-29T21:04:29.117Z,9.70
2023-04-29T21:06:55.660Z,9.64
2023-04-29T21:09:22.164Z,9.61
2023-04-29T21:11:50.127Z,9.59
2023-04-29T21:14:16.741Z,9.54
2023-04-29T21:16:43.326Z,9.50
2023-04-29T21:19:09.881Z,9.42
2023-04-29T21:21:36.348Z,9.41
2023-04-29T21:24:03.038Z,9.30
2023-04-29T21:26:29.518Z,9.28
2023-04-29T21:28:56.039Z,9.26
2023-04-29T21:31:22.779Z,9.21
2023-04-29T21:33:52.630Z,9.15
2023-04-29T21:36:19.122Z,9.14
2023-04-29T21:38:45.807Z,9.11
2023-04-29T21:41:37.789Z,9.04
2023-04-29T21:44:05.801Z,9.00
2023-04-29T21:46:33.447Z,9.00
2023-04-29T21:49:01.254Z,8.95
2023-04-29T21:51:28.957Z,8.91
2023-04-29T21:53:55.787Z,8.88
2023-04-29T21:56:24.454Z,8.81
2023-04-29T21:58:51.289Z,8.74
2023-04-29T22:01:27.354Z,8.75
2023-04-29T22:03:55.864Z,8.72
2023-04-29T22:06:22.828Z,8.70
2023-04-29T22:08:52.883Z,8.70
2023-04-29T22:11:21.725Z,8.64
2023-04-29T22:13:48.846Z,8.68
2023-04-29T22:16:15.642Z,8.65
2023-04-29T22:18:42.184Z,8.62
2023-04-29T22:21:08.632Z,8.59
2023-04-29T22:23:35.142Z,8.58
2023-04-29T22:26:01.883Z,8.51
2023-04-29T22:28:28.366Z,8.46
2023-04-29T22:30:54.844Z,8.45
2023-04-29T22:33:21.660Z,8.42
2023-04-29T22:35:48.117Z,8.37
2023-04-29T22:38:14.538Z,8.40
2023-04-29T22:40:41.064Z,8.39
2023-04-29T22:43:07.546Z,8.36
2023-04-29T22:45:34.032Z,8.29
2023-04-29T22:48:00.577Z,8.32
2023-04-29T22:50:27.130Z,8.28
2023-04-29T22:52:53.564Z,8.24
2023-04-29T22:55:20.032Z,8.24
2023-04-29T22:57:46.554Z,8.16
2023-04-29T23:00:13.805Z,8.17
2023-04-29T23:02:40.652Z,8.14
2023-04-29T23:05:07.726Z,8.12
2023-04-29T23:07:34.195Z,8.11
2023-04-29T23:10:00.745Z,8.10
2023-04-29T23:12:30.115Z,8.10
2023-04-29T23:14:56.620Z,8.01
2023-04-29T23:17:23.135Z,8.04
2023-04-29T23:19:49.614Z,7.98
2023-04-29T23:22:17.044Z,8.01
2023-04-29T23:24:43.708Z,7.95
2023-04-29T23:27:11.012Z,7.90
2023-04-29T23:29:37.622Z,7.89
2023-04-29T23:32:04.232Z,7.91
2023-04-29T23:34:30.787Z,7.96
2023-04-29T23:36:57.320Z,7.99
2023-04-29T23:39:23.807Z,8.13
2023-04-29T23:41:50.274Z,8.14
2023-04-29T23:44:16.747Z,8.12
2023-04-29T23:46:43.289Z,8.09
2023-04-29T23:49:10.475Z,8.13
2023-04-29T23:51:36.947Z,8.15
2023-04-29T23:54:03.710Z,8.01
2023-04-29T23:56:31.516Z,8.03
2023-04-29T23:58:58.045Z,8.02
